Time;durP1;ratioP1;P1;durP2;ratioP2;P2;SDS_P1;SDS_P2;PMS_P1;PMS_P2;Temp;Humidity;BMP_temperature;BMP_pressure;BME280_temperature;BME280_humidity;BME280_pressure;Samples;Min_cycle;Max_cycle;Signal;HPM_P1;HPM_P2
2022/12/15 00:39:06;;;;;;;98.57;45.00;;;-5.20;99.90;;;;;;2081435;28;20101;-71
2022/12/15 00:40:07;;;;;;;95.80;44.85;;;-5.20;99.90;;;;;;2081141;28;20767;-71
2022/12/15 00:41:09;;;;;;;95.80;43.47;;;-5.30;99.90;;;;;;2081582;28;20021;-71
2022/12/15 00:42:10;;;;;;;104.50;46.05;;;-5.30;99.90;;;;;;2081020;28;20782;-70
2022/12/15 00:43:11;;;;;;;104.70;47.50;;;-5.30;99.90;;;;;;2072721;28;20736;-71
2022/12/15 00:44:12;;;;;;;102.75;47.10;;;-5.30;99.90;;;;;;2081004;28;20021;-71
2022/12/15 00:45:12;;;;;;;103.80;47.95;;;-5.30;99.90;;;;;;2082112;28;20029;-71
2022/12/15 00:47:33;;;;;;;102.75;47.80;;;-5.30;99.90;;;;;;2082308;28;20029;-71
2022/12/15 00:48:34;;;;;;;104.70;47.28;;;-5.30;99.90;;;;;;2082645;28;20032;-71
2022/12/15 00:50:54;;;;;;;113.40;48.22;;;-5.40;99.90;;;;;;2082113;28;20103;-71
2022/12/15 01:21:07;;;;;;;112.80;48.05;;;-5.70;99.90;;;;;;2079336;28;20574;-71
2022/12/15 01:22:07;;;;;;;107.80;46.70;;;-5.80;99.90;;;;;;2080434;28;20505;-71
2022/12/15 01:23:08;;;;;;;110.07;47.95;;;-5.80;99.90;;;;;;2080776;28;20108;-70
2022/12/15 01:24:09;;;;;;;106.85;47.22;;;-5.80;99.90;;;;;;2080931;28;20032;-70
2022/12/15 01:25:10;;;;;;;108.40;47.97;;;-5.80;99.90;;;;;;2080808;28;20067;-71
2022/12/15 01:26:11;;;;;;;110.90;48.92;;;-5.70;99.90;;;;;;2080636;28;20501;-70
2022/12/15 01:27:12;;;;;;;109.97;47.63;;;-5.70;99.90;;;;;;2080219;28;20422;-70
2022/12/15 01:28:13;;;;;;;114.63;49.90;;;-5.70;99.90;;;;;;2079796;28;20123;-71
2022/12/15 01:29:13;;;;;;;122.68;51.72;;;-5.60;99.90;;;;;;2079834;28;20029;-70
2022/12/15 01:30:18;;;;;;;112.18;48.35;;;-5.60;99.90;;;;;;2079586;28;20450;-70
2022/12/15 01:31:18;;;;;;;121.03;51.33;;;-5.50;99.90;;;;;;2079108;28;20033;-71
2022/12/15 01:32:20;;;;;;;116.15;50.30;;;-5.40;99.90;;;;;;2079838;28;20438;-74
2022/12/15 01:33:21;;;;;;;116.05;49.53;;;-5.40;99.90;;;;;;2079799;28;20033;-71
2022/12/15 01:34:21;;;;;;;120.53;49.70;;;-5.30;99.90;;;;;;2079778;28;20458;-71
2022/12/15 01:35:22;;;;;;;122.38;51.33;;;-5.30;99.90;;;;;;2079617;28;20029;-71
2022/12/15 01:36:23;;;;;;;168.00;64.00;;;-5.20;99.90;;;;;;2079546;28;20124;-71
2022/12/15 01:37:24;;;;;;;149.45;58.58;;;-5.10;99.90;;;;;;2079773;28;20061;-71
2022/12/15 01:38:26;;;;;;;130.80;54.33;;;-5.10;99.90;;;;;;2079801;28;20111;-71
2022/12/15 01:40:43;;;;;;;121.65;51.85;;;-5.00;99.90;;;;;;2079050;28;20680;-70
2022/12/15 01:40:59;;;;;;;109.97;48.00;;;-5.00;99.90;;;;;;2078536;28;20068;-71
2022/12/15 01:42:00;;;;;;;77.88;34.50;;;-4.90;99.90;;;;;;2079813;28;20040;-70
2022/12/15 01:43:01;;;;;;;103.80;46.30;;;-4.80;99.90;;;;;;2079790;28;20470;-70
2022/12/15 01:44:35;;;;;;;99.68;46.30;;;-4.80;99.90;;;;;;2079243;28;20057;-70
2022/12/15 01:45:45;;;;;;;100.28;45.10;;;-4.70;99.90;;;;;;2066720;28;20503;-71
2022/12/15 01:46:48;;;;;;;99.65;44.92;;;-4.70;99.90;;;;;;2078767;28;20038;-70
2022/12/15 01:48:11;;;;;;;105.30;47.25;;;-4.70;99.90;;;;;;2079962;28;20030;-71
2022/12/15 01:49:24;;;;;;;99.38;45.78;;;-4.60;99.90;;;;;;2079631;28;20153;-71
2022/12/15 01:50:25;;;;;;;101.70;46.20;;;-4.60;99.90;;;;;;2079206;28;20029;-71
2022/12/15 01:51:34;;;;;;;111.30;48.20;;;-4.60;99.90;;;;;;2079410;28;20029;-70
2022/12/15 01:52:34;;;;;;;99.47;45.88;;;-4.50;99.90;;;;;;2079611;28;20088;-70
2022/12/15 01:53:54;;;;;;;99.43;45.97;;;-4.50;99.90;;;;;;2079460;28;20037;-70
2022/12/15 01:54:57;;;;;;;96.97;43.67;;;-4.50;99.90;;;;;;2079576;28;20029;-69
2022/12/15 01:55:58;;;;;;;92.78;43.97;;;-4.40;99.90;;;;;;2079639;28;20025;-71
2022/12/15 01:57:03;;;;;;;93.00;44.55;;;-4.40;99.90;;;;;;2079303;28;20118;-71
2022/12/15 01:58:07;;;;;;;91.35;43.20;;;-4.40;99.90;;;;;;2079521;28;20032;-71
2022/12/15 01:59:11;;;;;;;96.47;44.92;;;-4.40;99.90;;;;;;2079658;28;20630;-71
2022/12/15 02:00:13;;;;;;;97.57;44.67;;;-4.30;99.90;;;;;;2079018;28;20025;-70
2022/12/15 02:01:14;;;;;;;89.80;42.38;;;-4.30;99.90;;;;;;2070542;28;20049;-71
2022/12/15 02:02:16;;;;;;;86.57;42.22;;;-4.30;99.90;;;;;;2062634;28;20065;-70
2022/12/15 02:03:18;;;;;;;89.40;42.63;;;-4.30;99.90;;;;;;2070962;28;20117;-70
2022/12/15 02:04:20;;;;;;;91.93;43.63;;;-4.20;99.90;;;;;;2080669;28;20025;-71
2022/12/15 02:05:22;;;;;;;93.63;44.15;;;-4.20;99.90;;;;;;2081049;28;20095;-71
2022/12/15 02:06:25;;;;;;;93.35;44.60;;;-4.20;99.90;;;;;;2081210;28;20033;-72
2022/12/15 02:07:26;;;;;;;86.85;42.53;;;-4.20;99.90;;;;;;2081136;28;20028;-71
2022/12/15 02:08:28;;;;;;;90.55;43.53;;;-4.20;99.90;;;;;;2081417;28;20059;-71
2022/12/15 02:09:29;;;;;;;85.47;42.20;;;-4.10;99.90;;;;;;2081241;28;20026;-70
2022/12/15 02:10:54;;;;;;;86.28;41.95;;;-4.20;99.90;;;;;;2080633;28;20156;-71
2022/12/15 02:12:04;;;;;;;89.43;43.05;;;-4.10;99.90;;;;;;2081210;28;20340;-71
2022/12/15 02:13:18;;;;;;;89.75;42.00;;;-4.10;99.90;;;;;;2081211;28;20040;-70
2022/12/15 02:14:30;;;;;;;91.75;44.10;;;-4.10;99.90;;;;;;2081416;28;20029;-70
2022/12/15 02:16:04;;;;;;;83.25;40.38;;;-4.10;99.90;;;;;;2081738;28;20033;-71
2022/12/15 02:17:07;;;;;;;83.60;40.05;;;-4.20;99.90;;;;;;2082125;28;20076;-71
2022/12/15 02:18:26;;;;;;;85.20;41.78;;;-4.10;99.90;;;;;;2081195;28;20029;-71
2022/12/15 02:19:54;;;;;;;87.85;41.38;;;-4.20;99.90;;;;;;2080238;28;20037;-71
2022/12/15 02:21:08;;;;;;;91.30;43.05;;;-4.20;99.90;;;;;;2075578;28;20029;-71
2022/12/15 02:22:36;;;;;;;86.28;41.55;;;-4.30;99.90;;;;;;2080412;28;20030;-70
2022/12/15 02:23:58;;;;;;;92.47;42.13;;;-4.30;99.90;;;;;;2080352;28;20760;-71
2022/12/15 02:24:59;;;;;;;87.40;41.42;;;-4.30;99.90;;;;;;2080486;28;20052;-69
2022/12/15 02:26:36;;;;;;;84.72;41.08;;;-4.30;99.90;;;;;;2080958;28;20486;-70
2022/12/15 02:27:49;;;;;;;83.53;39.35;;;-4.30;99.90;;;;;;2080256;28;20033;-71
2022/12/15 02:29:04;;;;;;;89.30;40.30;;;-4.30;99.90;;;;;;2080496;28;20029;-71
2022/12/15 02:30:14;;;;;;;83.45;40.20;;;-4.30;99.90;;;;;;2080976;28;20031;-72
2022/12/15 02:31:50;;;;;;;84.63;40.20;;;-4.30;99.90;;;;;;2080415;28;20049;-71
2022/12/15 02:33:20;;;;;;;88.45;41.30;;;-4.30;99.90;;;;;;2080989;28;20037;-71
2022/12/15 02:36:50;;;;;;;87.63;40.08;;;-4.40;99.90;;;;;;2082348;28;20029;-70
2022/12/15 02:37:51;;;;;;;88.40;41.03;;;-4.40;99.90;;;;;;2081357;28;20040;-71
2022/12/15 02:38:51;;;;;;;84.00;40.50;;;-4.40;99.90;;;;;;2081528;28;20132;-71
2022/12/15 02:39:52;;;;;;;84.75;41.15;;;-4.40;99.90;;;;;;2082782;28;20028;-70
2022/12/15 02:41:01;;;;;;;86.68;41.83;;;-4.40;99.90;;;;;;2084504;28;20034;-71
2022/12/15 02:42:02;;;;;;;91.95;42.30;;;-4.40;99.90;;;;;;2084550;28;20029;-70
2022/12/15 02:43:05;;;;;;;90.22;43.47;;;-4.50;99.90;;;;;;2084620;28;20409;-71
2022/12/15 02:44:34;;;;;;;88.03;42.47;;;-4.50;99.90;;;;;;2083887;28;20029;-70
2022/12/15 02:46:23;;;;;;;90.50;42.55;;;-4.50;99.90;;;;;;2079335;28;20050;-72
2022/12/15 02:47:58;;;;;;;88.35;40.65;;;-4.50;99.90;;;;;;2085597;28;20500;-70
2022/12/15 02:49:20;;;;;;;90.60;40.55;;;-4.60;99.90;;;;;;2084855;28;20021;-70
2022/12/15 02:50:47;;;;;;;87.00;41.55;;;-4.60;99.90;;;;;;2079985;28;20021;-70
2022/12/15 02:52:00;;;;;;;88.70;41.63;;;-4.60;99.90;;;;;;2084877;28;20025;-70
2022/12/15 02:53:16;;;;;;;86.25;39.72;;;-4.60;99.90;;;;;;2084617;28;20030;-70
2022/12/15 02:54:33;;;;;;;89.40;40.30;;;-4.70;99.90;;;;;;2082955;28;20094;-71
2022/12/15 02:56:00;;;;;;;88.20;40.55;;;-4.70;99.90;;;;;;2082459;28;20117;-70
2022/12/15 02:57:34;;;;;;;91.05;42.03;;;-4.70;99.90;;;;;;2081212;28;20045;-71
2022/12/15 02:59:16;;;;;;;86.53;40.65;;;-4.70;99.90;;;;;;2080837;28;20054;-71
2022/12/15 03:00:17;;;;;;;85.68;39.38;;;-4.70;99.90;;;;;;2080465;28;20515;-70
2022/12/15 03:01:35;;;;;;;89.25;42.17;;;-4.70;99.90;;;;;;2080580;28;20672;-69
2022/12/15 03:02:39;;;;;;;95.35;43.65;;;-4.70;99.90;;;;;;2080216;28;20076;-70
2022/12/15 03:03:41;;;;;;;92.07;43.47;;;-4.70;99.90;;;;;;2080127;28;20045;-70
2022/12/15 03:04:44;;;;;;;95.20;44.50;;;-4.70;99.90;;;;;;2080408;28;20695;-70
2022/12/15 03:05:48;;;;;;;98.22;44.97;;;-4.70;99.90;;;;;;2080788;28;20021;-71
2022/12/15 03:07:02;;;;;;;95.35;44.80;;;-4.70;99.90;;;;;;2080058;28;20028;-70
2022/12/15 03:08:03;;;;;;;95.45;44.15;;;-4.70;99.90;;;;;;2080258;28;20053;-71
2022/12/15 03:09:04;;;;;;;91.97;43.13;;;-4.70;99.90;;;;;;2080850;28;20549;-71
2022/12/15 03:10:06;;;;;;;88.97;43.03;;;-4.70;99.90;;;;;;2080768;28;20076;-71
2022/12/15 03:11:06;;;;;;;90.35;43.30;;;-4.70;99.90;;;;;;2080026;28;20491;-71
2022/12/15 03:12:09;;;;;;;90.25;43.97;;;-4.70;99.90;;;;;;2080079;28;20119;-70
2022/12/15 03:13:09;;;;;;;93.60;44.22;;;-4.80;99.90;;;;;;2080265;28;20124;-71
2022/12/15 03:14:10;;;;;;;91.45;43.78;;;-4.80;99.90;;;;;;2079930;28;20037;-71
2022/12/15 03:15:11;;;;;;;95.18;45.05;;;-4.70;99.90;;;;;;2079651;28;20025;-71
2022/12/15 03:16:12;;;;;;;91.43;44.25;;;-4.70;99.90;;;;;;2080120;28;20462;-69
2022/12/15 03:17:12;;;;;;;93.25;44.90;;;-4.80;99.90;;;;;;2080098;28;20030;-70
2022/12/15 03:18:13;;;;;;;93.65;44.03;;;-4.70;99.90;;;;;;2080055;28;20060;-70
2022/12/15 03:19:14;;;;;;;90.07;43.75;;;-4.70;99.90;;;;;;2080741;28;20091;-70
2022/12/15 03:20:14;;;;;;;90.28;42.72;;;-4.70;99.90;;;;;;2079730;28;20021;-70
2022/12/15 03:21:15;;;;;;;89.47;42.92;;;-4.70;99.90;;;;;;2080164;28;20084;-70
2022/12/15 03:22:16;;;;;;;89.88;43.42;;;-4.80;99.90;;;;;;2081020;28;20090;-70
2022/12/15 03:23:17;;;;;;;91.38;44.05;;;-4.70;99.90;;;;;;2079882;28;20030;-70
2022/12/15 03:24:18;;;;;;;86.43;42.65;;;-4.70;99.90;;;;;;2079702;28;20041;-69
2022/12/15 03:25:18;;;;;;;88.70;42.42;;;-4.70;99.90;;;;;;2080230;28;20078;-70
2022/12/15 03:26:19;;;;;;;92.43;44.80;;;-4.70;99.90;;;;;;2079907;28;20029;-72
2022/12/15 03:27:20;;;;;;;89.90;43.45;;;-4.70;99.90;;;;;;2079871;28;20391;-71
2022/12/15 03:28:21;;;;;;;88.78;42.78;;;-4.70;99.90;;;;;;2080531;28;20024;-72
2022/12/15 03:29:22;;;;;;;97.15;44.92;;;-4.70;99.90;;;;;;2080670;28;20061;-70
2022/12/15 03:30:22;;;;;;;95.68;45.75;;;-4.70;99.90;;;;;;2080520;28;20139;-70
2022/12/15 03:31:23;;;;;;;89.85;43.30;;;-4.70;99.90;;;;;;2080541;28;20033;-70
2022/12/15 03:32:23;;;;;;;91.47;44.15;;;-4.70;99.90;;;;;;2080539;28;20030;-70
2022/12/15 03:33:24;;;;;;;92.72;43.88;;;-4.70;99.90;;;;;;2079913;28;20116;-72
2022/12/15 03:34:25;;;;;;;88.93;42.80;;;-4.70;99.90;;;;;;2079348;28;20508;-70
2022/12/15 03:35:25;;;;;;;90.85;42.35;;;-4.70;99.90;;;;;;2080796;28;20464;-72
2022/12/15 03:36:26;;;;;;;87.35;42.00;;;-4.70;99.90;;;;;;2080654;28;20040;-71
2022/12/15 03:37:27;;;;;;;90.03;43.28;;;-4.70;99.90;;;;;;2081156;28;20112;-70
2022/12/15 03:38:28;;;;;;;87.55;42.65;;;-4.70;99.90;;;;;;2080485;28;20022;-70
2022/12/15 03:39:28;;;;;;;88.32;43.17;;;-4.70;99.90;;;;;;2079509;28;20061;-71
2022/12/15 03:40:29;;;;;;;89.97;41.35;;;-4.70;99.90;;;;;;2079693;28;20049;-71
2022/12/15 03:41:30;;;;;;;89.47;42.38;;;-4.60;99.90;;;;;;2080483;28;20116;-70
2022/12/15 03:42:49;;;;;;;86.05;42.83;;;-4.70;99.90;;;;;;2079534;28;20117;-70
2022/12/15 03:43:49;;;;;;;86.40;40.78;;;-4.60;99.90;;;;;;2074110;28;20034;-70
2022/12/15 03:44:50;;;;;;;87.65;41.40;;;-4.60;99.90;;;;;;2079607;28;20035;-70
2022/12/15 03:45:51;;;;;;;89.82;42.35;;;-4.60;99.90;;;;;;2079799;28;20519;-71
2022/12/15 03:46:52;;;;;;;89.07;42.60;;;-4.70;99.90;;;;;;2079854;28;20121;-74
2022/12/15 03:47:54;;;;;;;89.85;42.30;;;-4.70;99.90;;;;;;2080329;28;20030;-71
2022/12/15 03:48:55;;;;;;;93.43;43.47;;;-4.70;99.90;;;;;;2080346;28;20065;-70
2022/12/15 03:49:55;;;;;;;88.78;42.42;;;-4.70;99.90;;;;;;2080425;28;20022;-71
2022/12/15 03:50:56;;;;;;;91.78;43.38;;;-4.70;99.90;;;;;;2080168;28;20047;-71
2022/12/15 03:51:57;;;;;;;90.55;44.08;;;-4.70;99.90;;;;;;2080917;28;20076;-71
2022/12/15 03:53:00;;;;;;;91.60;43.20;;;-4.70;99.90;;;;;;2080453;28;20029;-71
2022/12/15 03:54:01;;;;;;;92.43;43.85;;;-4.70;99.90;;;;;;2080863;28;20033;-71
2022/12/15 03:55:02;;;;;;;91.20;43.53;;;-4.70;99.90;;;;;;2080638;28;20095;-71
2022/12/15 03:56:03;;;;;;;88.57;42.20;;;-4.70;99.90;;;;;;2080429;28;20045;-71
2022/12/15 03:57:05;;;;;;;89.47;43.03;;;-4.70;99.90;;;;;;2080319;28;20045;-71
2022/12/15 03:58:06;;;;;;;88.68;41.83;;;-4.80;99.90;;;;;;2083517;28;20450;-71
2022/12/15 03:59:07;;;;;;;89.78;42.63;;;-4.70;99.90;;;;;;2087528;28;20029;-71
2022/12/15 04:00:10;;;;;;;88.07;42.40;;;-4.70;99.90;;;;;;2079442;28;20111;-70
2022/12/15 04:01:25;;;;;;;89.53;42.25;;;-4.80;99.90;;;;;;2080332;28;20129;-71
2022/12/15 04:02:25;;;;;;;92.65;43.22;;;-4.80;99.90;;;;;;2088593;28;20032;-71
2022/12/15 04:03:26;;;;;;;89.55;42.50;;;-4.80;99.90;;;;;;2088628;28;20037;-71
2022/12/15 04:04:27;;;;;;;89.53;43.05;;;-4.80;99.90;;;;;;2088618;28;20021;-70
2022/12/15 04:05:32;;;;;;;96.93;44.17;;;-4.80;99.90;;;;;;2088916;28;20459;-70
2022/12/15 04:06:32;;;;;;;96.00;44.60;;;-4.80;99.90;;;;;;2088998;28;20036;-70
2022/12/15 04:07:33;;;;;;;100.82;44.88;;;-4.80;99.90;;;;;;2087931;28;20032;-71
2022/12/15 04:08:34;;;;;;;102.03;44.85;;;-4.80;99.90;;;;;;2087882;28;20052;-71
2022/12/15 04:09:35;;;;;;;99.15;44.40;;;-4.80;99.90;;;;;;2079769;28;20025;-71
2022/12/15 04:10:36;;;;;;;102.20;46.60;;;-4.90;99.90;;;;;;2079677;28;20470;-71
2022/12/15 04:11:36;;;;;;;100.95;46.22;;;-4.80;99.90;;;;;;2088758;28;20182;-71
2022/12/15 04:12:38;;;;;;;100.13;45.67;;;-4.90;99.90;;;;;;2087861;28;20083;-71
2022/12/15 04:13:39;;;;;;;97.25;45.10;;;-4.90;99.90;;;;;;2091021;28;20412;-70
2022/12/15 04:14:41;;;;;;;99.28;44.72;;;-4.90;99.90;;;;;;2081716;28;20036;-71
2022/12/15 04:15:42;;;;;;;101.70;46.67;;;-4.90;99.90;;;;;;2079164;28;20116;-69
2022/12/15 04:16:42;;;;;;;102.57;47.70;;;-4.90;99.90;;;;;;2087149;28;20032;-71
2022/12/15 04:17:43;;;;;;;101.05;45.92;;;-4.80;99.90;;;;;;2088690;28;20029;-71
2022/12/15 04:18:43;;;;;;;102.72;45.15;;;-4.70;99.90;;;;;;2089008;28;20506;-71
2022/12/15 04:21:03;;;;;;;94.10;42.60;;;-4.80;99.90;;;;;;2087959;28;20052;-68
2022/12/15 04:22:04;;;;;;;95.00;43.83;;;-4.80;99.90;;;;;;2087951;28;20021;-71
2022/12/15 04:23:09;;;;;;;92.10;43.65;;;-4.90;99.90;;;;;;2088743;28;20035;-71
2022/12/15 05:32:07;;;;;;;100.63;44.72;;;-5.20;99.90;;;;;;2088787;28;20112;-74
2022/12/15 05:33:08;;;;;;;105.88;47.53;;;-5.30;99.90;;;;;;2088578;28;20040;-73
2022/12/15 05:34:08;;;;;;;103.28;47.22;;;-5.30;99.90;;;;;;2088146;28;20043;-74
2022/12/15 05:35:09;;;;;;;108.18;48.20;;;-5.30;99.90;;;;;;2088437;28;20041;-74
2022/12/15 05:36:10;;;;;;;105.32;47.97;;;-5.30;99.90;;;;;;2088667;28;20086;-75
2022/12/15 05:37:11;;;;;;;111.10;50.58;;;-5.30;99.90;;;;;;2088038;28;20068;-73
2022/12/15 05:38:11;;;;;;;118.80;52.53;;;-5.40;99.90;;;;;;2079769;28;20128;-75
2022/12/15 05:39:12;;;;;;;118.35;50.70;;;-5.30;99.90;;;;;;2088098;28;20578;-74
2022/12/15 05:40:13;;;;;;;115.30;52.15;;;-5.30;99.90;;;;;;2088153;28;20035;-75
2022/12/15 05:41:13;;;;;;;115.03;51.22;;;-5.30;99.90;;;;;;2087754;28;20037;-74
2022/12/15 05:42:14;;;;;;;118.43;51.83;;;-5.30;99.90;;;;;;2088515;28;20033;-74
2022/12/15 05:43:16;;;;;;;108.13;49.78;;;-5.30;99.90;;;;;;2088476;28;20104;-74
2022/12/15 05:44:17;;;;;;;101.82;47.38;;;-5.30;99.90;;;;;;2087365;28;20038;-74
2022/12/15 05:45:18;;;;;;;103.88;47.85;;;-5.40;99.90;;;;;;2087453;28;20029;-74
2022/12/15 05:46:18;;;;;;;106.90;49.05;;;-5.40;99.90;;;;;;2087487;28;20025;-76
2022/12/15 05:47:19;;;;;;;105.07;47.80;;;-5.40;99.90;;;;;;2088166;28;20489;-74
2022/12/15 05:48:20;;;;;;;100.40;46.17;;;-5.40;99.90;;;;;;2088388;28;20033;-75
2022/12/15 05:49:22;;;;;;;100.03;45.40;;;-5.40;99.90;;;;;;2088446;28;20064;-76
2022/12/15 05:50:22;;;;;;;98.32;45.40;;;-5.40;99.90;;;;;;2088360;28;20082;-75
2022/12/15 05:51:23;;;;;;;107.18;48.22;;;-5.40;99.90;;;;;;2088139;28;20106;-74
2022/12/15 05:52:24;;;;;;;107.13;48.97;;;-5.40;99.90;;;;;;2088350;28;20112;-75
2022/12/15 05:53:24;;;;;;;102.32;47.33;;;-5.40;99.90;;;;;;2087663;28;20064;-74
2022/12/15 05:54:25;;;;;;;101.22;46.50;;;-5.30;99.90;;;;;;2079023;28;20448;-73
2022/12/15 05:55:26;;;;;;;104.47;47.08;;;-5.40;99.90;;;;;;2087565;28;20037;-74
2022/12/15 05:56:29;;;;;;;103.55;47.20;;;-5.40;99.90;;;;;;2088200;28;20035;-75
2022/12/15 05:57:30;;;;;;;101.70;46.13;;;-5.40;99.90;;;;;;2088275;28;20029;-74
2022/12/15 05:58:30;;;;;;;95.63;44.47;;;-5.50;99.90;;;;;;2087952;28;20487;-73
2022/12/15 05:59:31;;;;;;;101.50;45.75;;;-5.50;99.90;;;;;;2079571;28;20035;-73
2022/12/15 06:00:32;;;;;;;97.82;45.25;;;-5.50;99.90;;;;;;2070982;28;20079;-73
2022/12/15 06:01:34;;;;;;;101.43;45.97;;;-5.50;99.90;;;;;;2087500;28;20102;-70
2022/12/15 06:02:34;;;;;;;101.00;46.38;;;-5.50;99.90;;;;;;2087766;28;20062;-71
2022/12/15 06:03:35;;;;;;;97.68;45.65;;;-5.60;99.90;;;;;;2079119;28;20648;-73
2022/12/15 06:04:36;;;;;;;98.35;45.97;;;-5.50;99.90;;;;;;2086275;28;20083;-70
2022/12/15 06:05:38;;;;;;;104.57;48.22;;;-5.60;99.90;;;;;;2088084;28;20056;-70
2022/12/15 06:06:39;;;;;;;106.55;47.75;;;-5.60;99.90;;;;;;2088172;28;20590;-70
2022/12/15 06:07:40;;;;;;;109.78;48.17;;;-5.50;99.90;;;;;;2087825;28;20181;-70
2022/12/15 06:08:42;;;;;;;108.55;48.25;;;-5.50;99.90;;;;;;2088125;28;20104;-70
2022/12/15 06:09:42;;;;;;;108.53;47.88;;;-5.50;99.90;;;;;;2087982;28;20059;-69
2022/12/15 06:10:43;;;;;;;106.47;48.90;;;-5.50;99.90;;;;;;2087151;28;20021;-71
2022/12/15 06:11:44;;;;;;;106.93;48.17;;;-5.50;99.90;;;;;;2087432;28;20099;-70
2022/12/15 06:12:45;;;;;;;99.15;45.92;;;-5.60;99.90;;;;;;2088165;28;20029;-70
2022/12/15 06:13:46;;;;;;;99.03;46.80;;;-5.60;99.90;;;;;;2087474;28;20487;-71
2022/12/15 06:14:46;;;;;;;109.32;48.67;;;-5.60;99.90;;;;;;2087408;28;20009;-68
2022/12/15 06:15:58;;;;;;;120.30;51.63;;;-5.60;99.90;;;;;;2087949;28;20086;-70
2022/12/15 06:16:59;;;;;;;107.38;47.97;;;-5.40;99.90;;;;;;2088967;28;20103;-72
2022/12/15 06:17:59;;;;;;;106.43;46.35;;;-5.30;99.90;;;;;;2087777;28;20037;-74
2022/12/15 06:19:01;;;;;;;98.05;45.88;;;-5.30;99.90;;;;;;2087584;28;20025;-74
2022/12/15 06:20:03;;;;;;;98.13;45.75;;;-5.30;99.90;;;;;;2087704;28;20037;-73
2022/12/15 06:21:11;;;;;;;97.90;45.50;;;-5.30;99.90;;;;;;2087388;28;20056;-73
2022/12/15 06:22:11;;;;;;;96.68;42.65;;;-5.40;99.90;;;;;;2079916;28;20099;-72
2022/12/15 06:23:12;;;;;;;95.25;44.20;;;-5.50;99.90;;;;;;2078375;28;20474;-73
2022/12/15 06:24:13;;;;;;;100.40;45.78;;;-5.50;99.90;;;;;;2079041;28;20028;-73
2022/12/15 06:25:13;;;;;;;89.47;43.15;;;-5.50;99.90;;;;;;2079216;28;20040;-76
2022/12/15 06:26:19;;;;;;;98.65;46.15;;;-5.60;99.90;;;;;;2078842;28;20025;-75
2022/12/15 06:27:20;;;;;;;99.57;45.97;;;-5.70;99.90;;;;;;2079484;28;20033;-74
2022/12/15 06:28:25;;;;;;;109.45;48.60;;;-5.70;99.90;;;;;;2078924;28;20037;-72
2022/12/15 06:29:25;;;;;;;101.45;46.38;;;-5.50;99.90;;;;;;2079419;28;20025;-75
2022/12/15 06:30:26;;;;;;;101.28;45.45;;;-5.60;99.90;;;;;;2078744;28;20033;-72
2022/12/15 06:31:28;;;;;;;98.95;45.45;;;-5.60;99.90;;;;;;2086862;28;20516;-73
2022/12/15 06:32:28;;;;;;;101.60;45.92;;;-5.60;99.90;;;;;;2087836;28;20402;-72
2022/12/15 06:33:30;;;;;;;100.82;44.80;;;-5.60;99.90;;;;;;2087528;28;20025;-71
2022/12/15 06:34:30;;;;;;;108.32;46.72;;;-5.70;99.90;;;;;;2087192;28;20035;-71
2022/12/15 06:35:36;;;;;;;109.90;47.17;;;-5.70;99.90;;;;;;2087917;28;20033;-71
2022/12/15 06:36:37;;;;;;;110.03;48.05;;;-5.80;99.90;;;;;;2083861;28;20675;-71
2022/12/15 06:37:38;;;;;;;119.13;49.22;;;-5.80;99.90;;;;;;2086628;28;20029;-71
2022/12/15 06:38:42;;;;;;;112.10;49.15;;;-5.80;99.90;;;;;;2078671;28;20036;-71
2022/12/15 06:39:43;;;;;;;112.30;48.30;;;-5.80;99.90;;;;;;2089169;28;20040;-71
2022/12/15 06:40:43;;;;;;;114.57;49.22;;;-5.80;99.90;;;;;;2088947;28;20090;-72
2022/12/15 06:41:44;;;;;;;111.78;47.40;;;-5.90;99.90;;;;;;2088746;28;20192;-71
2022/12/15 06:42:45;;;;;;;110.97;47.38;;;-5.90;99.90;;;;;;2087050;28;20693;-70
2022/12/15 06:43:51;;;;;;;106.25;46.42;;;-5.90;99.90;;;;;;2086762;28;20707;-70
2022/12/15 06:44:52;;;;;;;106.88;45.35;;;-6.00;99.90;;;;;;2087669;28;20053;-66
2022/12/15 06:45:53;;;;;;;102.85;45.78;;;-6.00;99.90;;;;;;2088079;28;20467;-68
2022/12/15 06:46:54;;;;;;;109.55;46.78;;;-6.00;99.90;;;;;;2078596;28;20030;-71
2022/12/15 06:47:55;;;;;;;119.78;50.45;;;-6.00;99.90;;;;;;2078898;28;20049;-73
2022/12/15 06:48:57;;;;;;;112.75;49.15;;;-5.90;99.90;;;;;;2078573;28;20048;-71
2022/12/15 06:49:57;;;;;;;112.70;48.90;;;-5.80;99.90;;;;;;2079318;28;20087;-74
2022/12/15 06:51:05;;;;;;;109.10;46.92;;;-5.80;99.90;;;;;;2088991;28;20163;-71
2022/12/15 06:52:06;;;;;;;111.65;47.70;;;-5.80;99.90;;;;;;2089046;28;20029;-71
2022/12/15 06:53:07;;;;;;;109.00;48.08;;;-5.80;99.90;;;;;;2089166;28;20033;-71
2022/12/15 06:54:09;;;;;;;110.18;48.92;;;-5.80;99.90;;;;;;2088802;28;20057;-72
2022/12/15 06:55:10;;;;;;;114.68;50.20;;;-5.90;99.90;;;;;;2088627;28;20025;-73
2022/12/15 06:56:29;;;;;;;113.82;49.72;;;-5.80;99.90;;;;;;2088446;28;20119;-72
2022/12/15 06:57:30;;;;;;;111.00;48.00;;;-5.80;99.90;;;;;;2089069;28;20579;-71
2022/12/15 06:58:31;;;;;;;112.57;49.65;;;-5.90;99.90;;;;;;2088182;28;20082;-73
2022/12/15 06:59:32;;;;;;;112.47;49.55;;;-5.80;99.90;;;;;;2088050;28;20033;-73
2022/12/15 07:00:35;;;;;;;102.95;46.80;;;-5.70;99.90;;;;;;2088334;28;20088;-72
2022/12/15 07:01:36;;;;;;;109.75;49.83;;;-5.70;99.90;;;;;;2087665;28;20041;-71
2022/12/15 07:02:36;;;;;;;104.18;46.58;;;-5.70;99.90;;;;;;2087348;28;20108;-72
2022/12/15 07:03:37;;;;;;;100.95;46.47;;;-5.80;99.90;;;;;;2088578;28;20816;-72
2022/12/15 07:04:38;;;;;;;100.10;45.78;;;-5.80;99.90;;;;;;2088285;28;20020;-73
2022/12/15 07:05:38;;;;;;;103.95;46.97;;;-5.80;99.90;;;;;;2089663;28;20025;-73
2022/12/15 07:06:39;;;;;;;104.30;47.83;;;-5.90;99.90;;;;;;2089548;28;20033;-72
2022/12/15 07:07:40;;;;;;;110.68;50.00;;;-5.90;99.90;;;;;;2090065;28;20040;-73
2022/12/15 07:08:42;;;;;;;107.53;48.08;;;-5.90;99.90;;;;;;2090503;28;20721;-76
2022/12/15 07:09:43;;;;;;;105.82;48.30;;;-5.90;99.90;;;;;;2090190;28;20100;-75
2022/12/15 07:10:43;;;;;;;1310.30;771.17;;;-6.00;99.90;;;;;;2089971;28;20029;-77
2022/12/15 07:11:48;;;;;;;1199.20;750.50;;;-5.80;99.90;;;;;;2089663;28;20118;-68
2022/12/15 07:12:48;;;;;;;678.30;426.90;;;-5.70;99.90;;;;;;2081305;28;20459;-68
2022/12/15 07:13:51;;;;;;;531.97;333.83;;;-5.80;99.90;;;;;;2090807;28;20029;-69
2022/12/15 07:14:51;;;;;;;407.35;245.68;;;-5.80;99.90;;;;;;2091056;28;20040;-69
2022/12/15 07:15:52;;;;;;;242.68;130.32;;;-5.80;99.90;;;;;;2089613;28;20091;-68
2022/12/15 07:16:53;;;;;;;196.55;100.47;;;-5.80;99.90;;;;;;2089209;28;20138;-68
2022/12/15 07:17:55;;;;;;;140.18;67.43;;;-5.80;99.90;;;;;;2090148;28;20123;-67
2022/12/15 07:18:56;;;;;;;117.65;56.42;;;-5.80;99.90;;;;;;2089046;28;20036;-68
2022/12/15 07:19:56;;;;;;;107.88;52.28;;;-5.80;99.90;;;;;;2088997;28;20028;-68
2022/12/15 07:21:08;;;;;;;99.95;49.08;;;-5.80;99.90;;;;;;2086306;28;20091;-67
2022/12/15 07:22:08;;;;;;;96.70;45.30;;;-5.80;99.90;;;;;;2085617;28;20033;-68
2022/12/15 07:23:10;;;;;;;99.15;45.35;;;-5.90;99.90;;;;;;2086566;28;20521;-68
2022/12/15 07:24:11;;;;;;;97.40;44.50;;;-5.90;99.90;;;;;;2082276;28;20049;-68
2022/12/15 07:25:12;;;;;;;103.25;46.08;;;-5.90;99.90;;;;;;2086518;28;20030;-69
2022/12/15 07:26:13;;;;;;;96.68;45.03;;;-5.90;99.90;;;;;;2083459;28;20028;-69
2022/12/15 07:27:14;;;;;;;110.35;52.25;;;-5.90;99.90;;;;;;2080345;28;20717;-68
2022/12/15 07:28:15;;;;;;;107.07;49.53;;;-5.80;99.90;;;;;;2089682;28;20020;-69
2022/12/15 07:29:16;;;;;;;101.10;46.92;;;-5.80;99.90;;;;;;2082366;28;20021;-69
2022/12/15 07:30:17;;;;;;;110.22;52.38;;;-5.80;99.90;;;;;;2082552;28;20041;-69
2022/12/15 07:31:17;;;;;;;106.00;50.28;;;-5.70;99.90;;;;;;2082842;28;20022;-73
2022/12/15 07:32:19;;;;;;;99.75;46.97;;;-5.70;99.90;;;;;;2081010;28;20022;-68
2022/12/15 07:33:20;;;;;;;98.30;46.53;;;-5.70;99.90;;;;;;2080737;28;20022;-71
2022/12/15 07:34:20;;;;;;;93.72;44.35;;;-5.70;99.90;;;;;;2080349;28;20434;-73
2022/12/15 07:35:21;;;;;;;98.38;45.13;;;-5.80;99.90;;;;;;2081000;28;20065;-72
2022/12/15 07:36:22;;;;;;;95.65;44.85;;;-5.80;99.90;;;;;;2080737;28;20096;-72
2022/12/15 07:37:22;;;;;;;102.05;47.05;;;-5.80;99.90;;;;;;2079663;28;20026;-71
2022/12/15 07:38:23;;;;;;;105.75;46.67;;;-5.70;99.90;;;;;;2080699;28;20609;-71
2022/12/15 07:39:26;;;;;;;102.82;46.15;;;-5.70;99.90;;;;;;2081298;28;20061;-71
2022/12/15 07:40:26;;;;;;;97.72;44.80;;;-5.70;99.90;;;;;;2080109;28;20148;-68
2022/12/15 07:41:28;;;;;;;94.95;43.53;;;-5.70;99.90;;;;;;2079958;28;20697;-68
2022/12/15 07:42:31;;;;;;;94.85;44.00;;;-5.70;99.90;;;;;;2081863;28;20037;-67
2022/12/15 07:43:33;;;;;;;103.10;47.60;;;-5.70;99.90;;;;;;2079623;28;20032;-68
2022/12/15 07:44:33;;;;;;;102.85;45.95;;;-5.70;99.90;;;;;;2079487;28;20056;-71
2022/12/15 07:45:34;;;;;;;98.38;44.97;;;-5.70;99.90;;;;;;2080534;28;20022;-71